createdAt,value
2017-11-30T00:09:37.000Z,997.887
2017-11-30T00:19:37.000Z,997.802
2017-11-30T00:29:37.000Z,997.705
2017-11-30T00:39:37.000Z,997.595
2017-11-30T00:49:37.000Z,997.549
2017-11-30T00:59:37.000Z,997.453
2017-11-30T01:09:37.000Z,997.351
2017-11-30T01:19:37.000Z,997.212
2017-11-30T01:29:37.000Z,997.284
2017-11-30T01:39:37.000Z,997.292
2017-11-30T01:49:37.000Z,997.174
2017-11-30T01:59:37.000Z,997.138
2017-11-30T02:09:37.000Z,997.124
2017-11-30T02:19:37.000Z,997.078
2017-11-30T02:29:37.000Z,996.967
2017-11-30T02:39:39.000Z,996.832
2017-11-30T02:49:37.000Z,996.789
2017-11-30T02:59:37.000Z,996.773
2017-11-30T03:09:37.000Z,996.669
2017-11-30T03:19:37.000Z,996.658
2017-11-30T03:29:37.000Z,996.587
2017-11-30T03:39:37.000Z,996.508
2017-11-30T03:49:37.000Z,996.416
2017-11-30T03:59:37.000Z,996.436
2017-11-30T04:09:38.000Z,996.418
2017-11-30T04:19:38.000Z,996.378
2017-11-30T04:29:38.000Z,996.312
2017-11-30T04:39:38.000Z,996.258
2017-11-30T04:49:38.000Z,996.211
2017-11-30T04:59:38.000Z,996.153
2017-11-30T05:09:38.000Z,996.132
2017-11-30T05:19:38.000Z,996.116
2017-11-30T05:29:38.000Z,996.028
2017-11-30T05:39:38.000Z,995.944
2017-11-30T05:49:38.000Z,995.829
2017-11-30T05:59:38.000Z,995.862
2017-11-30T06:09:38.000Z,995.862
2017-11-30T06:19:38.000Z,995.854
2017-11-30T06:29:38.000Z,995.798
2017-11-30T06:39:38.000Z,995.876
2017-11-30T06:49:38.000Z,995.873
2017-11-30T06:59:38.000Z,995.833
2017-11-30T07:09:38.000Z,995.917
2017-11-30T07:19:39.000Z,995.966
2017-11-30T07:29:38.000Z,995.914
2017-11-30T07:39:38.000Z,995.923
2017-11-30T07:49:38.000Z,995.899
2017-11-30T07:59:38.000Z,996.051
2017-11-30T08:09:38.000Z,996.005
2017-11-30T08:19:38.000Z,996.003
2017-11-30T08:29:38.000Z,996.041
2017-11-30T08:39:38.000Z,995.929
2017-11-30T08:49:38.000Z,995.814
2017-11-30T09:19:38.000Z,995.703
2017-11-30T09:29:38.000Z,995.808
2017-11-30T09:39:38.000Z,995.783
2017-11-30T09:49:38.000Z,995.679
2017-11-30T09:59:38.000Z,995.54
2017-11-30T10:09:38.000Z,995.48
2017-11-30T10:19:38.000Z,995.397
2017-11-30T10:29:38.000Z,995.389
2017-11-30T10:39:38.000Z,995.361
2017-11-30T10:49:38.000Z,995.287
2017-11-30T10:59:38.000Z,995.203
2017-11-30T11:09:38.000Z,995.154
2017-11-30T11:19:38.000Z,995.107
2017-11-30T11:29:38.000Z,995.109
2017-11-30T11:39:38.000Z,995.04
2017-11-30T11:49:38.000Z,995.035
2017-11-30T11:59:38.000Z,994.937
2017-11-30T12:09:39.000Z,994.957
2017-11-30T12:19:39.000Z,994.964
2017-11-30T12:29:39.000Z,994.971
2017-11-30T12:39:39.000Z,995
2017-11-30T12:49:39.000Z,994.961
2017-11-30T12:59:39.000Z,994.881
2017-11-30T13:09:39.000Z,994.89
2017-11-30T13:19:39.000Z,994.752
2017-11-30T13:29:39.000Z,994.701
2017-11-30T13:39:39.000Z,994.77
2017-11-30T13:49:39.000Z,994.743
2017-11-30T13:59:39.000Z,994.692
2017-11-30T14:09:39.000Z,994.785
2017-11-30T14:19:39.000Z,994.829
2017-11-30T14:29:39.000Z,994.882
2017-11-30T14:39:39.000Z,994.952
2017-11-30T14:49:39.000Z,994.956
2017-11-30T14:59:39.000Z,995.105
2017-11-30T15:09:39.000Z,995.205
2017-11-30T15:19:39.000Z,995.266
2017-11-30T15:29:39.000Z,995.289
2017-11-30T15:39:39.000Z,995.358
2017-11-30T15:49:39.000Z,995.435
2017-11-30T15:59:39.000Z,995.495
2017-11-30T16:09:39.000Z,995.541
2017-11-30T16:19:39.000Z,995.594
2017-11-30T16:29:39.000Z,995.658
2017-11-30T16:39:39.000Z,995.732
2017-11-30T16:49:39.000Z,995.805
2017-11-30T16:59:39.000Z,995.798
2017-11-30T17:09:39.000Z,995.939
2017-11-30T17:19:39.000Z,995.952
2017-11-30T17:29:39.000Z,996.06
2017-11-30T17:39:39.000Z,996.118
2017-11-30T17:49:39.000Z,996.228
2017-11-30T17:59:39.000Z,996.31
2017-11-30T18:09:39.000Z,996.316
2017-11-30T18:19:39.000Z,996.413
2017-11-30T18:29:39.000Z,996.503
2017-11-30T18:39:39.000Z,996.564
2017-11-30T18:49:39.000Z,996.635
2017-11-30T18:59:39.000Z,996.661
2017-11-30T19:09:39.000Z,996.725
2017-11-30T19:19:39.000Z,996.751
2017-11-30T19:29:39.000Z,996.784
2017-11-30T19:39:39.000Z,996.733
2017-11-30T19:49:39.000Z,996.774
2017-11-30T19:59:39.000Z,996.981
2017-11-30T20:09:39.000Z,997.056
2017-11-30T20:19:39.000Z,997.13
2017-11-30T20:29:40.000Z,997.195
2017-11-30T20:39:40.000Z,997.308
2017-11-30T20:49:40.000Z,997.432
2017-11-30T20:59:40.000Z,997.536
2017-11-30T21:09:40.000Z,997.638
2017-11-30T21:19:40.000Z,997.702
2017-11-30T21:29:40.000Z,997.772
2017-11-30T21:39:40.000Z,997.782
2017-11-30T21:49:40.000Z,997.928
2017-11-30T21:59:40.000Z,997.977
2017-11-30T22:09:40.000Z,998.028
2017-11-30T22:19:40.000Z,998.163
2017-11-30T22:29:40.000Z,998.345
2017-11-30T22:39:40.000Z,998.411
2017-11-30T22:49:40.000Z,998.53
2017-11-30T22:59:40.000Z,998.638
2017-11-30T23:09:40.000Z,998.696
2017-11-30T23:19:40.000Z,998.781
2017-11-30T23:29:40.000Z,998.883
2017-11-30T23:39:40.000Z,998.927
2017-11-30T23:49:40.000Z,999.009
2017-11-30T23:59:40.000Z,999.156
